sensor_id;sensor_type;location;lat;lon;timestamp;temperature;humidity
13892;DHT22;7016;48.172;8.058;2023-05-17T00:02:05;8.30;99.90
13892;DHT22;7016;48.172;8.058;2023-05-17T00:04:31;8.20;99.90
13892;DHT22;7016;48.172;8.058;2023-05-17T00:06:57;8.20;99.90
13892;DHT22;7016;48.172;8.058;2023-05-17T00:09:23;8.20;99.90
13892;DHT22;7016;48.172;8.058;2023-05-17T00:11:49;8.20;99.90
13892;DHT22;7016;48.172;8.058;2023-05-17T00:14:14;8.10;99.90
13892;DHT22;7016;48.172;8.058;2023-05-17T00:16:40;8.10;99.90
13892;DHT22;7016;48.172;8.058;2023-05-17T00:19:06;8.10;99.90
13892;DHT22;7016;48.172;8.058;2023-05-17T00:21:34;8.10;99.90
13892;DHT22;7016;48.172;8.058;2023-05-17T00:24:00;8.10;99.90
13892;DHT22;7016;48.172;8.058;2023-05-17T00:26:25;8.10;99.90
13892;DHT22;7016;48.172;8.058;2023-05-17T00:28:51;8.00;99.90
13892;DHT22;7016;48.172;8.058;2023-05-17T00:31:17;8.00;99.90
13892;DHT22;7016;48.172;8.058;2023-05-17T00:33:42;8.00;99.90
13892;DHT22;7016;48.172;8.058;2023-05-17T00:36:08;7.90;99.90
13892;DHT22;7016;48.172;8.058;2023-05-17T00:38:34;7.80;99.90
13892;DHT22;7016;48.172;8.058;2023-05-17T00:40:59;7.80;99.90
13892;DHT22;7016;48.172;8.058;2023-05-17T00:43:26;7.70;99.90
13892;DHT22;7016;48.172;8.058;2023-05-17T00:45:52;7.70;99.90
13892;DHT22;7016;48.172;8.058;2023-05-17T00:48:18;7.60;99.90
13892;DHT22;7016;48.172;8.058;2023-05-17T00:50:53;7.70;99.90
13892;DHT22;7016;48.172;8.058;2023-05-17T00:53:20;7.70;99.90
13892;DHT22;7016;48.172;8.058;2023-05-17T00:55:46;7.70;99.90
13892;DHT22;7016;48.172;8.058;2023-05-17T00:58:13;7.70;99.90
13892;DHT22;7016;48.172;8.058;2023-05-17T01:00:58;7.60;99.90
13892;DHT22;7016;48.172;8.058;2023-05-17T01:03:24;7.60;99.90
13892;DHT22;7016;48.172;8.058;2023-05-17T01:05:50;7.40;99.90
13892;DHT22;7016;48.172;8.058;2023-05-17T01:08:16;7.40;99.90
13892;DHT22;7016;48.172;8.058;2023-05-17T01:13:44;7.30;99.90
13892;DHT22;7016;48.172;8.058;2023-05-17T01:16:25;7.30;99.90
13892;DHT22;7016;48.172;8.058;2023-05-17T01:24:33;7.50;99.90
13892;DHT22;7016;48.172;8.058;2023-05-17T01:27:03;7.30;99.90
13892;DHT22;7016;48.172;8.058;2023-05-17T01:29:31;7.20;99.90
13892;DHT22;7016;48.172;8.058;2023-05-17T01:31:58;7.30;99.90
13892;DHT22;7016;48.172;8.058;2023-05-17T01:34:28;7.20;99.90
13892;DHT22;7016;48.172;8.058;2023-05-17T01:36:54;7.20;99.90
13892;DHT22;7016;48.172;8.058;2023-05-17T01:39:23;7.10;99.90
13892;DHT22;7016;48.172;8.058;2023-05-17T01:41:59;7.10;99.90
13892;DHT22;7016;48.172;8.058;2023-05-17T01:50:32;7.40;99.90
13892;DHT22;7016;48.172;8.058;2023-05-17T01:53:20;7.60;99.90
13892;DHT22;7016;48.172;8.058;2023-05-17T01:56:00;7.60;99.90
13892;DHT22;7016;48.172;8.058;2023-05-17T01:58:28;7.50;99.90
13892;DHT22;7016;48.172;8.058;2023-05-17T02:00:55;7.40;99.90
13892;DHT22;7016;48.172;8.058;2023-05-17T02:03:22;7.30;99.90
13892;DHT22;7016;48.172;8.058;2023-05-17T02:05:48;7.20;99.90
13892;DHT22;7016;48.172;8.058;2023-05-17T02:08:14;7.30;99.90
13892;DHT22;7016;48.172;8.058;2023-05-17T02:10:48;7.30;99.90
13892;DHT22;7016;48.172;8.058;2023-05-17T02:13:13;7.30;99.90
13892;DHT22;7016;48.172;8.058;2023-05-17T02:15:39;7.30;99.90
13892;DHT22;7016;48.172;8.058;2023-05-17T02:18:05;7.30;99.90
13892;DHT22;7016;48.172;8.058;2023-05-17T02:20:31;7.20;99.90
13892;DHT22;7016;48.172;8.058;2023-05-17T02:22:56;7.20;99.90
13892;DHT22;7016;48.172;8.058;2023-05-17T02:25:22;7.20;99.90
13892;DHT22;7016;48.172;8.058;2023-05-17T02:27:48;7.20;99.90
13892;DHT22;7016;48.172;8.058;2023-05-17T02:30:13;7.20;99.90
13892;DHT22;7016;48.172;8.058;2023-05-17T02:32:41;7.00;99.90
13892;DHT22;7016;48.172;8.058;2023-05-17T02:35:07;6.90;99.90
13892;DHT22;7016;48.172;8.058;2023-05-17T02:37:33;7.10;99.90
13892;DHT22;7016;48.172;8.058;2023-05-17T02:39:59;7.20;99.90
13892;DHT22;7016;48.172;8.058;2023-05-17T02:42:25;7.10;99.90
13892;DHT22;7016;48.172;8.058;2023-05-17T02:44:51;7.20;99.90
13892;DHT22;7016;48.172;8.058;2023-05-17T02:47:26;7.30;99.90
13892;DHT22;7016;48.172;8.058;2023-05-17T02:49:51;7.30;99.90
13892;DHT22;7016;48.172;8.058;2023-05-17T02:52:17;7.30;99.90
13892;DHT22;7016;48.172;8.058;2023-05-17T02:54:43;7.30;99.90
13892;DHT22;7016;48.172;8.058;2023-05-17T02:57:09;7.30;99.90
13892;DHT22;7016;48.172;8.058;2023-05-17T02:59:35;7.20;99.90
13892;DHT22;7016;48.172;8.058;2023-05-17T03:02:01;7.20;99.90
13892;DHT22;7016;48.172;8.058;2023-05-17T03:04:26;7.10;99.90
13892;DHT22;7016;48.172;8.058;2023-05-17T03:06:52;7.10;99.90
13892;DHT22;7016;48.172;8.058;2023-05-17T03:09:18;7.10;99.90
13892;DHT22;7016;48.172;8.058;2023-05-17T03:11:44;7.10;99.90
13892;DHT22;7016;48.172;8.058;2023-05-17T03:14:09;7.00;99.90
13892;DHT22;7016;48.172;8.058;2023-05-17T03:16:35;7.00;99.90
13892;DHT22;7016;48.172;8.058;2023-05-17T03:19:01;7.00;99.90
13892;DHT22;7016;48.172;8.058;2023-05-17T03:21:26;6.90;99.90
13892;DHT22;7016;48.172;8.058;2023-05-17T03:23:52;6.90;99.90
13892;DHT22;7016;48.172;8.058;2023-05-17T03:26:18;6.90;99.90
13892;DHT22;7016;48.172;8.058;2023-05-17T03:28:44;6.90;99.90
13892;DHT22;7016;48.172;8.058;2023-05-17T03:31:10;6.90;99.90
13892;DHT22;7016;48.172;8.058;2023-05-17T03:33:36;6.90;99.90
13892;DHT22;7016;48.172;8.058;2023-05-17T03:36:02;6.80;99.90
13892;DHT22;7016;48.172;8.058;2023-05-17T03:38:27;6.70;99.90
13892;DHT22;7016;48.172;8.058;2023-05-17T03:40:53;6.70;99.90
13892;DHT22;7016;48.172;8.058;2023-05-17T03:43:19;6.70;99.90
13892;DHT22;7016;48.172;8.058;2023-05-17T03:45:45;6.70;99.90
13892;DHT22;7016;48.172;8.058;2023-05-17T03:48:11;6.80;99.90
13892;DHT22;7016;48.172;8.058;2023-05-17T03:50:38;6.60;99.90
13892;DHT22;7016;48.172;8.058;2023-05-17T03:53:05;6.60;99.90
13892;DHT22;7016;48.172;8.058;2023-05-17T03:55:31;6.70;99.90
13892;DHT22;7016;48.172;8.058;2023-05-17T03:57:57;6.70;99.90
13892;DHT22;7016;48.172;8.058;2023-05-17T04:00:22;6.70;99.90
13892;DHT22;7016;48.172;8.058;2023-05-17T04:02:49;6.70;99.90
13892;DHT22;7016;48.172;8.058;2023-05-17T04:05:15;6.70;99.90
13892;DHT22;7016;48.172;8.058;2023-05-17T04:07:41;6.90;99.90
13892;DHT22;7016;48.172;8.058;2023-05-17T04:10:09;6.80;99.90
13892;DHT22;7016;48.172;8.058;2023-05-17T04:12:35;6.80;99.90
13892;DHT22;7016;48.172;8.058;2023-05-17T04:15:01;6.80;99.90
13892;DHT22;7016;48.172;8.058;2023-05-17T04:17:27;6.90;99.90
13892;DHT22;7016;48.172;8.058;2023-05-17T04:19:53;7.00;99.90
13892;DHT22;7016;48.172;8.058;2023-05-17T04:22:20;7.00;99.90
13892;DHT22;7016;48.172;8.058;2023-05-17T04:24:46;6.90;99.90
13892;DHT22;7016;48.172;8.058;2023-05-17T04:27:11;7.00;99.90
13892;DHT22;7016;48.172;8.058;2023-05-17T04:29:37;7.20;99.90
13892;DHT22;7016;48.172;8.058;2023-05-17T04:32:03;7.00;99.90
13892;DHT22;7016;48.172;8.058;2023-05-17T04:34:29;7.20;99.90
13892;DHT22;7016;48.172;8.058;2023-05-17T04:36:56;7.10;99.90
13892;DHT22;7016;48.172;8.058;2023-05-17T04:39:22;7.00;99.90
13892;DHT22;7016;48.172;8.058;2023-05-17T04:41:48;7.20;99.90
13892;DHT22;7016;48.172;8.058;2023-05-17T04:44:13;7.10;99.90
13892;DHT22;7016;48.172;8.058;2023-05-17T04:46:39;7.20;99.90
13892;DHT22;7016;48.172;8.058;2023-05-17T04:49:06;7.40;99.90
13892;DHT22;7016;48.172;8.058;2023-05-17T04:51:32;7.40;99.90
13892;DHT22;7016;48.172;8.058;2023-05-17T04:53:58;7.40;99.90
13892;DHT22;7016;48.172;8.058;2023-05-17T04:56:26;7.20;99.90
13892;DHT22;7016;48.172;8.058;2023-05-17T04:58:52;7.20;99.90
13892;DHT22;7016;48.172;8.058;2023-05-17T05:01:18;7.20;99.90
13892;DHT22;7016;48.172;8.058;2023-05-17T05:03:44;7.10;99.90
13892;DHT22;7016;48.172;8.058;2023-05-17T05:06:09;7.20;99.90
13892;DHT22;7016;48.172;8.058;2023-05-17T05:08:36;7.30;99.90
13892;DHT22;7016;48.172;8.058;2023-05-17T05:11:02;7.20;99.90
13892;DHT22;7016;48.172;8.058;2023-05-17T05:13:28;7.30;99.90
13892;DHT22;7016;48.172;8.058;2023-05-17T05:15:54;7.30;99.90
13892;DHT22;7016;48.172;8.058;2023-05-17T05:18:20;7.20;99.90
13892;DHT22;7016;48.172;8.058;2023-05-17T05:20:47;7.30;99.90
13892;DHT22;7016;48.172;8.058;2023-05-17T05:23:13;7.40;99.90
13892;DHT22;7016;48.172;8.058;2023-05-17T05:25:38;7.60;99.90
13892;DHT22;7016;48.172;8.058;2023-05-17T05:28:04;7.60;99.90
13892;DHT22;7016;48.172;8.058;2023-05-17T05:30:31;7.70;99.90
13892;DHT22;7016;48.172;8.058;2023-05-17T05:32:57;7.80;99.90
13892;DHT22;7016;48.172;8.058;2023-05-17T05:35:22;7.70;99.90
13892;DHT22;7016;48.172;8.058;2023-05-17T05:37:55;7.60;99.90
13892;DHT22;7016;48.172;8.058;2023-05-17T05:40:21;7.70;99.90
13892;DHT22;7016;48.172;8.058;2023-05-17T05:42:47;7.80;99.90
13892;DHT22;7016;48.172;8.058;2023-05-17T05:45:13;7.90;99.90
13892;DHT22;7016;48.172;8.058;2023-05-17T05:47:38;8.20;99.90
13892;DHT22;7016;48.172;8.058;2023-05-17T05:50:05;8.50;99.90
13892;DHT22;7016;48.172;8.058;2023-05-17T05:52:31;8.70;99.90
13892;DHT22;7016;48.172;8.058;2023-05-17T05:54:57;8.90;99.90
13892;DHT22;7016;48.172;8.058;2023-05-17T05:57:24;9.20;99.90
13892;DHT22;7016;48.172;8.058;2023-05-17T05:59:49;9.30;99.90
13892;DHT22;7016;48.172;8.058;2023-05-17T06:02:15;9.40;99.90
13892;DHT22;7016;48.172;8.058;2023-05-17T06:04:42;9.50;99.90
13892;DHT22;7016;48.172;8.058;2023-05-17T06:07:07;9.50;99.90
13892;DHT22;7016;48.172;8.058;2023-05-17T06:09:33;9.30;99.90
13892;DHT22;7016;48.172;8.058;2023-05-17T06:11:59;9.40;99.90
13892;DHT22;7016;48.172;8.058;2023-05-17T06:14:25;9.40;99.90
13892;DHT22;7016;48.172;8.058;2023-05-17T06:16:51;9.30;99.90
13892;DHT22;7016;48.172;8.058;2023-05-17T06:19:17;9.50;99.90
13892;DHT22;7016;48.172;8.058;2023-05-17T06:21:43;9.50;99.90
13892;DHT22;7016;48.172;8.058;2023-05-17T06:24:08;9.60;99.90
13892;DHT22;7016;48.172;8.058;2023-05-17T06:26:34;9.60;99.90
13892;DHT22;7016;48.172;8.058;2023-05-17T06:29:00;9.80;99.90
13892;DHT22;7016;48.172;8.058;2023-05-17T06:31:25;10.00;99.90
13892;DHT22;7016;48.172;8.058;2023-05-17T06:33:51;10.10;99.90
13892;DHT22;7016;48.172;8.058;2023-05-17T06:36:17;10.10;99.90
13892;DHT22;7016;48.172;8.058;2023-05-17T06:38:42;10.20;99.90
13892;DHT22;7016;48.172;8.058;2023-05-17T06:41:08;10.20;99.90
13892;DHT22;7016;48.172;8.058;2023-05-17T06:43:34;10.10;99.90
13892;DHT22;7016;48.172;8.058;2023-05-17T06:46:00;10.40;99.90
13892;DHT22;7016;48.172;8.058;2023-05-17T06:48:25;10.50;99.90
13892;DHT22;7016;48.172;8.058;2023-05-17T06:50:51;10.60;99.90
13892;DHT22;7016;48.172;8.058;2023-05-17T06:53:17;10.70;99.90
13892;DHT22;7016;48.172;8.058;2023-05-17T06:55:43;10.80;99.90
13892;DHT22;7016;48.172;8.058;2023-05-17T06:58:08;11.00;99.90
13892;DHT22;7016;48.172;8.058;2023-05-17T07:00:35;10.90;99.90
13892;DHT22;7016;48.172;8.058;2023-05-17T07:03:01;11.10;99.90
13892;DHT22;7016;48.172;8.058;2023-05-17T07:05:26;11.10;99.90
13892;DHT22;7016;48.172;8.058;2023-05-17T07:07:55;11.20;99.90
13892;DHT22;7016;48.172;8.058;2023-05-17T07:10:21;11.20;99.90
13892;DHT22;7016;48.172;8.058;2023-05-17T07:12:46;11.30;99.90
13892;DHT22;7016;48.172;8.058;2023-05-17T07:15:12;11.40;99.90
13892;DHT22;7016;48.172;8.058;2023-05-17T07:17:38;11.40;99.90
13892;DHT22;7016;48.172;8.058;2023-05-17T07:20:04;11.50;99.90
13892;DHT22;7016;48.172;8.058;2023-05-17T07:22:30;11.60;99.90
13892;DHT22;7016;48.172;8.058;2023-05-17T07:24:56;11.30;99.90
13892;DHT22;7016;48.172;8.058;2023-05-17T07:27:22;11.30;99.90
13892;DHT22;7016;48.172;8.058;2023-05-17T07:29:47;11.40;99.90
13892;DHT22;7016;48.172;8.058;2023-05-17T07:32:13;11.40;99.90
13892;DHT22;7016;48.172;8.058;2023-05-17T07:34:40;11.40;99.90
13892;DHT22;7016;48.172;8.058;2023-05-17T07:37:06;11.50;99.90
13892;DHT22;7016;48.172;8.058;2023-05-17T07:39:31;11.80;99.90
13892;DHT22;7016;48.172;8.058;2023-05-17T07:41:57;11.80;99.90
13892;DHT22;7016;48.172;8.058;2023-05-17T07:44:23;11.80;99.90
13892;DHT22;7016;48.172;8.058;2023-05-17T07:46:48;11.70;99.90
13892;DHT22;7016;48.172;8.058;2023-05-17T07:49:14;11.90;99.90
13892;DHT22;7016;48.172;8.058;2023-05-17T07:51:40;11.80;99.90
13892;DHT22;7016;48.172;8.058;2023-05-17T07:54:05;11.60;99.90
13892;DHT22;7016;48.172;8.058;2023-05-17T07:56:31;11.70;99.90
13892;DHT22;7016;48.172;8.058;2023-05-17T07:58:58;12.00;99.90
13892;DHT22;7016;48.172;8.058;2023-05-17T08:01:24;12.00;99.90
13892;DHT22;7016;48.172;8.058;2023-05-17T08:03:50;12.00;99.90
13892;DHT22;7016;48.172;8.058;2023-05-17T08:06:16;12.10;99.90
13892;DHT22;7016;48.172;8.058;2023-05-17T08:08:42;12.00;99.90
13892;DHT22;7016;48.172;8.058;2023-05-17T08:11:09;11.80;99.90
13892;DHT22;7016;48.172;8.058;2023-05-17T08:13:35;11.70;99.90
13892;DHT22;7016;48.172;8.058;2023-05-17T08:16:00;11.70;99.90
13892;DHT22;7016;48.172;8.058;2023-05-17T08:18:29;11.70;99.90
13892;DHT22;7016;48.172;8.058;2023-05-17T08:21:02;11.80;99.90
13892;DHT22;7016;48.172;8.058;2023-05-17T08:23:29;11.80;99.90
13892;DHT22;7016;48.172;8.058;2023-05-17T08:25:54;11.80;99.90
13892;DHT22;7016;48.172;8.058;2023-05-17T08:28:20;11.90;99.90
13892;DHT22;7016;48.172;8.058;2023-05-17T08:30:46;11.90;99.90
13892;DHT22;7016;48.172;8.058;2023-05-17T08:33:12;11.90;99.90
13892;DHT22;7016;48.172;8.058;2023-05-17T08:35:37;11.90;99.90
13892;DHT22;7016;48.172;8.058;2023-05-17T08:38:03;12.00;99.90
13892;DHT22;7016;48.172;8.058;2023-05-17T08:40:29;11.90;99.90
13892;DHT22;7016;48.172;8.058;2023-05-17T08:43:14;11.90;99.90
13892;DHT22;7016;48.172;8.058;2023-05-17T08:45:40;11.80;99.90
13892;DHT22;7016;48.172;8.058;2023-05-17T08:48:06;12.00;99.90
13892;DHT22;7016;48.172;8.058;2023-05-17T08:50:32;12.00;99.90
13892;DHT22;7016;48.172;8.058;2023-05-17T08:52:59;12.20;99.90
13892;DHT22;7016;48.172;8.058;2023-05-17T08:55:27;12.20;99.90
13892;DHT22;7016;48.172;8.058;2023-05-17T08:57:55;12.20;99.90
13892;DHT22;7016;48.172;8.058;2023-05-17T09:00:23;12.20;99.90
13892;DHT22;7016;48.172;8.058;2023-05-17T09:02:50;12.10;99.90
13892;DHT22;7016;48.172;8.058;2023-05-17T09:05:15;12.00;99.90
13892;DHT22;7016;48.172;8.058;2023-05-17T09:07:41;12.00;99.90
13892;DHT22;7016;48.172;8.058;2023-05-17T09:10:08;12.00;99.90
13892;DHT22;7016;48.172;8.058;2023-05-17T09:12:34;12.00;99.90
13892;DHT22;7016;48.172;8.058;2023-05-17T09:15:17;12.00;99.90
13892;DHT22;7016;48.172;8.058;2023-05-17T09:17:49;12.10;99.90
13892;DHT22;7016;48.172;8.058;2023-05-17T09:20:21;12.10;99.90
13892;DHT22;7016;48.172;8.058;2023-05-17T09:22:50;12.20;99.90
13892;DHT22;7016;48.172;8.058;2023-05-17T09:25:22;12.20;99.90
13892;DHT22;7016;48.172;8.058;2023-05-17T09:27:51;12.20;99.90
13892;DHT22;7016;48.172;8.058;2023-05-17T09:30:17;12.20;99.90
13892;DHT22;7016;48.172;8.058;2023-05-17T09:32:43;12.30;99.90
13892;DHT22;7016;48.172;8.058;2023-05-17T09:35:10;12.40;99.90
13892;DHT22;7016;48.172;8.058;2023-05-17T09:37:41;12.40;99.90
13892;DHT22;7016;48.172;8.058;2023-05-17T09:40:09;12.50;99.90
13892;DHT22;7016;48.172;8.058;2023-05-17T09:42:35;12.60;99.90
13892;DHT22;7016;48.172;8.058;2023-05-17T09:45:03;12.70;99.90
13892;DHT22;7016;48.172;8.058;2023-05-17T09:47:30;12.50;99.90
13892;DHT22;7016;48.172;8.058;2023-05-17T09:50:00;12.90;99.90
13892;DHT22;7016;48.172;8.058;2023-05-17T09:52:28;13.10;99.90
13892;DHT22;7016;48.172;8.058;2023-05-17T09:54:59;13.10;99.90
13892;DHT22;7016;48.172;8.058;2023-05-17T09:57:36;13.10;99.90
13892;DHT22;7016;48.172;8.058;2023-05-17T10:00:03;13.20;99.90
13892;DHT22;7016;48.172;8.058;2023-05-17T10:02:38;13.20;99.90
13892;DHT22;7016;48.172;8.058;2023-05-17T10:05:10;13.20;99.90
13892;DHT22;7016;48.172;8.058;2023-05-17T10:07:36;13.00;99.90
13892;DHT22;7016;48.172;8.058;2023-05-17T10:10:03;13.00;99.90
13892;DHT22;7016;48.172;8.058;2023-05-17T10:12:31;13.00;99.90
13892;DHT22;7016;48.172;8.058;2023-05-17T10:15:00;13.20;99.90
13892;DHT22;7016;48.172;8.058;2023-05-17T10:17:29;13.10;99.90
13892;DHT22;7016;48.172;8.058;2023-05-17T10:19:57;13.30;99.90
13892;DHT22;7016;48.172;8.058;2023-05-17T10:22:23;13.20;99.90
13892;DHT22;7016;48.172;8.058;2023-05-17T10:24:50;13.30;99.90
13892;DHT22;7016;48.172;8.058;2023-05-17T10:27:16;13.40;99.90
13892;DHT22;7016;48.172;8.058;2023-05-17T10:29:43;13.30;99.90
13892;DHT22;7016;48.172;8.058;2023-05-17T10:32:09;13.40;99.90
13892;DHT22;7016;48.172;8.058;2023-05-17T10:34:38;13.30;99.90
13892;DHT22;7016;48.172;8.058;2023-05-17T10:37:05;13.40;99.90
13892;DHT22;7016;48.172;8.058;2023-05-17T10:39:32;13.50;99.90
13892;DHT22;7016;48.172;8.058;2023-05-17T10:42:04;13.60;99.90
13892;DHT22;7016;48.172;8.058;2023-05-17T10:44:32;13.80;99.90
13892;DHT22;7016;48.172;8.058;2023-05-17T10:46:59;13.50;99.90
13892;DHT22;7016;48.172;8.058;2023-05-17T10:49:30;13.60;99.90
13892;DHT22;7016;48.172;8.058;2023-05-17T10:52:10;13.60;99.90
13892;DHT22;7016;48.172;8.058;2023-05-17T10:54:39;13.60;99.90
13892;DHT22;7016;48.172;8.058;2023-05-17T10:57:06;13.60;99.90
13892;DHT22;7016;48.172;8.058;2023-05-17T10:59:33;13.70;99.90
13892;DHT22;7016;48.172;8.058;2023-05-17T11:04:36;13.60;99.90
13892;DHT22;7016;48.172;8.058;2023-05-17T11:15:10;13.90;99.90
13892;DHT22;7016;48.172;8.058;2023-05-17T11:22:42;13.70;99.90
13892;DHT22;7016;48.172;8.058;2023-05-17T11:25:12;13.80;99.90
13892;DHT22;7016;48.172;8.058;2023-05-17T11:27:50;14.00;99.90
13892;DHT22;7016;48.172;8.058;2023-05-17T11:30:29;14.10;99.90
13892;DHT22;7016;48.172;8.058;2023-05-17T11:33:00;14.20;99.90
13892;DHT22;7016;48.172;8.058;2023-05-17T11:35:33;14.00;99.90
13892;DHT22;7016;48.172;8.058;2023-05-17T11:38:21;13.90;99.90
13892;DHT22;7016;48.172;8.058;2023-05-17T11:40:49;13.90;99.90
13892;DHT22;7016;48.172;8.058;2023-05-17T11:43:21;13.90;99.90
13892;DHT22;7016;48.172;8.058;2023-05-17T11:45:55;14.10;99.90
13892;DHT22;7016;48.172;8.058;2023-05-17T11:48:29;14.10;99.90
13892;DHT22;7016;48.172;8.058;2023-05-17T11:50:55;14.20;99.90
13892;DHT22;7016;48.172;8.058;2023-05-17T11:53:21;14.20;99.90
13892;DHT22;7016;48.172;8.058;2023-05-17T11:55:50;14.20;99.90
13892;DHT22;7016;48.172;8.058;2023-05-17T11:58:23;14.00;99.90
13892;DHT22;7016;48.172;8.058;2023-05-17T12:00:55;14.10;99.90
13892;DHT22;7016;48.172;8.058;2023-05-17T12:03:28;14.10;99.90
13892;DHT22;7016;48.172;8.058;2023-05-17T12:06:08;14.10;99.90
13892;DHT22;7016;48.172;8.058;2023-05-17T12:08:36;14.10;99.90
13892;DHT22;7016;48.172;8.058;2023-05-17T12:11:03;14.20;99.90
13892;DHT22;7016;48.172;8.058;2023-05-17T12:13:31;14.30;99.90
13892;DHT22;7016;48.172;8.058;2023-05-17T12:16:00;14.30;99.90
13892;DHT22;7016;48.172;8.058;2023-05-17T12:18:48;14.00;99.90
13892;DHT22;7016;48.172;8.058;2023-05-17T12:21:15;14.10;99.90
13892;DHT22;7016;48.172;8.058;2023-05-17T12:23:42;14.40;99.90
13892;DHT22;7016;48.172;8.058;2023-05-17T12:26:13;14.50;99.90
13892;DHT22;7016;48.172;8.058;2023-05-17T12:28:59;14.60;99.90
13892;DHT22;7016;48.172;8.058;2023-05-17T12:31:43;14.60;99.90
13892;DHT22;7016;48.172;8.058;2023-05-17T12:34:10;14.50;99.90
13892;DHT22;7016;48.172;8.058;2023-05-17T12:36:38;14.50;99.90
13892;DHT22;7016;48.172;8.058;2023-05-17T12:39:05;14.30;99.90
13892;DHT22;7016;48.172;8.058;2023-05-17T12:41:34;14.30;99.90
13892;DHT22;7016;48.172;8.058;2023-05-17T12:44:01;14.20;99.90
13892;DHT22;7016;48.172;8.058;2023-05-17T12:46:27;14.20;99.90
13892;DHT22;7016;48.172;8.058;2023-05-17T12:48:53;14.50;99.90
13892;DHT22;7016;48.172;8.058;2023-05-17T12:51:20;14.50;99.90
13892;DHT22;7016;48.172;8.058;2023-05-17T12:56:18;14.60;99.90
13892;DHT22;7016;48.172;8.058;2023-05-17T12:59:18;14.90;99.90
13892;DHT22;7016;48.172;8.058;2023-05-17T13:01:50;14.90;99.90
13892;DHT22;7016;48.172;8.058;2023-05-17T13:04:19;14.90;99.90
13892;DHT22;7016;48.172;8.058;2023-05-17T13:07:04;14.70;99.70
13892;DHT22;7016;48.172;8.058;2023-05-17T13:09:31;14.70;99.70
13892;DHT22;7016;48.172;8.058;2023-05-17T13:12:05;14.70;99.90
13892;DHT22;7016;48.172;8.058;2023-05-17T13:14:36;14.80;99.90
13892;DHT22;7016;48.172;8.058;2023-05-17T13:17:10;14.70;99.90
13892;DHT22;7016;48.172;8.058;2023-05-17T13:19:37;14.70;99.90
13892;DHT22;7016;48.172;8.058;2023-05-17T13:22:05;14.70;99.90
13892;DHT22;7016;48.172;8.058;2023-05-17T13:24:36;14.70;99.90
13892;DHT22;7016;48.172;8.058;2023-05-17T13:27:03;14.90;99.90
13892;DHT22;7016;48.172;8.058;2023-05-17T13:29:34;15.00;99.90
13892;DHT22;7016;48.172;8.058;2023-05-17T13:32:04;15.00;99.90
13892;DHT22;7016;48.172;8.058;2023-05-17T13:34:30;14.80;99.90
13892;DHT22;7016;48.172;8.058;2023-05-17T13:36:56;14.80;99.90
13892;DHT22;7016;48.172;8.058;2023-05-17T13:39:22;15.00;99.90
13892;DHT22;7016;48.172;8.058;2023-05-17T13:41:47;15.10;99.90
13892;DHT22;7016;48.172;8.058;2023-05-17T13:44:13;15.20;99.90
13892;DHT22;7016;48.172;8.058;2023-05-17T13:46:39;15.30;99.90
13892;DHT22;7016;48.172;8.058;2023-05-17T13:49:05;15.40;99.90
13892;DHT22;7016;48.172;8.058;2023-05-17T13:51:33;15.30;99.90
13892;DHT22;7016;48.172;8.058;2023-05-17T13:54:07;15.10;99.90
13892;DHT22;7016;48.172;8.058;2023-05-17T13:56:33;15.10;99.90
13892;DHT22;7016;48.172;8.058;2023-05-17T13:58:59;15.20;99.80
13892;DHT22;7016;48.172;8.058;2023-05-17T14:01:25;15.20;99.90
13892;DHT22;7016;48.172;8.058;2023-05-17T14:03:50;15.20;99.90
13892;DHT22;7016;48.172;8.058;2023-05-17T14:06:16;15.10;99.90
13892;DHT22;7016;48.172;8.058;2023-05-17T14:08:42;15.20;99.90
13892;DHT22;7016;48.172;8.058;2023-05-17T14:11:08;15.30;99.90
13892;DHT22;7016;48.172;8.058;2023-05-17T14:13:34;15.30;99.60
13892;DHT22;7016;48.172;8.058;2023-05-17T14:16:00;15.40;99.90
13892;DHT22;7016;48.172;8.058;2023-05-17T14:18:25;15.30;99.40
13892;DHT22;7016;48.172;8.058;2023-05-17T14:20:51;15.30;99.00
13892;DHT22;7016;48.172;8.058;2023-05-17T14:23:17;15.30;98.90
13892;DHT22;7016;48.172;8.058;2023-05-17T14:25:43;15.00;99.20
13892;DHT22;7016;48.172;8.058;2023-05-17T14:28:09;15.10;99.30
13892;DHT22;7016;48.172;8.058;2023-05-17T14:30:36;15.10;99.10
13892;DHT22;7016;48.172;8.058;2023-05-17T14:33:02;15.20;99.20
13892;DHT22;7016;48.172;8.058;2023-05-17T14:35:28;15.10;98.60
13892;DHT22;7016;48.172;8.058;2023-05-17T14:37:55;15.10;99.40
13892;DHT22;7016;48.172;8.058;2023-05-17T14:40:21;15.30;99.90
13892;DHT22;7016;48.172;8.058;2023-05-17T14:42:47;15.20;98.60
13892;DHT22;7016;48.172;8.058;2023-05-17T14:45:13;15.20;98.90
13892;DHT22;7016;48.172;8.058;2023-05-17T14:47:39;15.20;99.70
13892;DHT22;7016;48.172;8.058;2023-05-17T14:50:05;15.10;98.80
13892;DHT22;7016;48.172;8.058;2023-05-17T14:52:32;15.10;99.60
13892;DHT22;7016;48.172;8.058;2023-05-17T14:54:57;15.10;99.90
13892;DHT22;7016;48.172;8.058;2023-05-17T14:57:24;15.00;99.00
13892;DHT22;7016;48.172;8.058;2023-05-17T14:59:49;15.10;99.90
13892;DHT22;7016;48.172;8.058;2023-05-17T15:02:15;15.10;99.90
13892;DHT22;7016;48.172;8.058;2023-05-17T15:04:41;14.80;99.10
13892;DHT22;7016;48.172;8.058;2023-05-17T15:07:06;14.80;99.60
13892;DHT22;7016;48.172;8.058;2023-05-17T15:09:38;15.00;99.90
13892;DHT22;7016;48.172;8.058;2023-05-17T15:12:04;15.20;99.40
13892;DHT22;7016;48.172;8.058;2023-05-17T15:14:30;15.20;98.30
13892;DHT22;7016;48.172;8.058;2023-05-17T15:16:55;15.20;99.00
13892;DHT22;7016;48.172;8.058;2023-05-17T15:19:21;15.20;98.40
13892;DHT22;7016;48.172;8.058;2023-05-17T15:21:47;15.30;99.40
13892;DHT22;7016;48.172;8.058;2023-05-17T15:24:13;15.30;97.50
13892;DHT22;7016;48.172;8.058;2023-05-17T15:26:38;15.10;99.20
13892;DHT22;7016;48.172;8.058;2023-05-17T15:29:04;15.10;98.90
13892;DHT22;7016;48.172;8.058;2023-05-17T15:31:30;15.10;99.30
13892;DHT22;7016;48.172;8.058;2023-05-17T15:33:57;15.20;98.80
13892;DHT22;7016;48.172;8.058;2023-05-17T15:36:22;15.10;99.10
13892;DHT22;7016;48.172;8.058;2023-05-17T15:38:48;15.00;99.50
13892;DHT22;7016;48.172;8.058;2023-05-17T15:41:15;15.00;99.80
13892;DHT22;7016;48.172;8.058;2023-05-17T15:43:42;14.90;98.80
13892;DHT22;7016;48.172;8.058;2023-05-17T15:46:08;14.80;99.50
13892;DHT22;7016;48.172;8.058;2023-05-17T15:48:34;14.70;99.50
13892;DHT22;7016;48.172;8.058;2023-05-17T15:51:00;14.70;99.80
13892;DHT22;7016;48.172;8.058;2023-05-17T15:53:27;14.90;99.90
13892;DHT22;7016;48.172;8.058;2023-05-17T15:55:53;14.90;99.80
13892;DHT22;7016;48.172;8.058;2023-05-17T15:58:21;14.90;98.70
13892;DHT22;7016;48.172;8.058;2023-05-17T16:00:47;15.00;98.60
13892;DHT22;7016;48.172;8.058;2023-05-17T16:03:13;15.00;98.90
13892;DHT22;7016;48.172;8.058;2023-05-17T16:05:40;15.20;99.70
13892;DHT22;7016;48.172;8.058;2023-05-17T16:08:07;15.10;99.40
13892;DHT22;7016;48.172;8.058;2023-05-17T16:10:34;14.90;99.30
13892;DHT22;7016;48.172;8.058;2023-05-17T16:13:00;14.80;99.80
13892;DHT22;7016;48.172;8.058;2023-05-17T16:15:26;14.90;99.60
13892;DHT22;7016;48.172;8.058;2023-05-17T16:17:51;15.00;99.90
13892;DHT22;7016;48.172;8.058;2023-05-17T16:20:18;15.00;98.60
13892;DHT22;7016;48.172;8.058;2023-05-17T16:22:44;15.10;99.70
13892;DHT22;7016;48.172;8.058;2023-05-17T16:25:14;15.10;99.70
13892;DHT22;7016;48.172;8.058;2023-05-17T16:27:40;15.20;99.50